sensor_id;sensor_type;location;lat;lon;timestamp;pressure;altitude;pressure_sealevel;temperature;humidity
35419;BME280;21525;41.240;16.500;2023-05-02T00:01:57;100793.72;;;22.39;100.00
35419;BME280;21525;41.240;16.500;2023-05-02T00:04:23;100793.19;;;21.89;100.00
35419;BME280;21525;41.240;16.500;2023-05-02T00:06:51;100792.84;;;21.65;100.00
35419;BME280;21525;41.240;16.500;2023-05-02T00:09:17;100783.81;;;21.83;100.00
35419;BME280;21525;41.240;16.500;2023-05-02T00:11:43;100781.31;;;21.96;100.00
35419;BME280;21525;41.240;16.500;2023-05-02T00:14:09;100771.06;;;22.05;100.00
35419;BME280;21525;41.240;16.500;2023-05-02T00:16:35;100773.13;;;21.70;100.00
35419;BME280;21525;41.240;16.500;2023-05-02T00:19:01;100770.97;;;22.07;100.00
35419;BME280;21525;41.240;16.500;2023-05-02T00:21:26;100779.81;;;22.64;100.00
35419;BME280;21525;41.240;16.500;2023-05-02T00:23:54;100781.13;;;23.00;100.00
35419;BME280;21525;41.240;16.500;2023-05-02T00:26:22;100784.72;;;22.99;100.00
35419;BME280;21525;41.240;16.500;2023-05-02T00:28:49;100779.03;;;23.05;100.00
35419;BME280;21525;41.240;16.500;2023-05-02T00:31:15;100781.31;;;21.96;100.00
35419;BME280;21525;41.240;16.500;2023-05-02T00:33:41;100770.72;;;22.83;100.00
35419;BME280;21525;41.240;16.500;2023-05-02T00:36:16;100768.69;;;23.68;100.00
35419;BME280;21525;41.240;16.500;2023-05-02T00:38:43;100775.72;;;22.87;100.00
35419;BME280;21525;41.240;16.500;2023-05-02T00:41:09;100769.56;;;22.44;100.00
35419;BME280;21525;41.240;16.500;2023-05-02T00:43:35;100755.94;;;22.93;100.00
35419;BME280;21525;41.240;16.500;2023-05-02T00:46:05;100763.47;;;22.13;100.00
35419;BME280;21525;41.240;16.500;2023-05-02T00:48:32;100753.75;;;22.99;100.00
35419;BME280;21525;41.240;16.500;2023-05-02T00:50:57;100752.06;;;22.56;100.00
35419;BME280;21525;41.240;16.500;2023-05-02T00:53:23;100765.00;;;23.03;100.00
35419;BME280;21525;41.240;16.500;2023-05-02T00:55:49;100757.94;;;23.16;100.00
35419;BME280;21525;41.240;16.500;2023-05-02T00:58:16;100762.59;;;23.12;100.00
35419;BME280;21525;41.240;16.500;2023-05-02T01:00:53;100770.34;;;22.60;100.00
35419;BME280;21525;41.240;16.500;2023-05-02T01:11:59;100752.88;;;22.13;100.00
35419;BME280;21525;41.240;16.500;2023-05-02T01:14:30;100753.09;;;22.53;100.00
35419;BME280;21525;41.240;16.500;2023-05-02T01:17:05;100762.00;;;21.94;100.00
35419;BME280;21525;41.240;16.500;2023-05-02T01:19:39;100760.31;;;22.37;100.00
35419;BME280;21525;41.240;16.500;2023-05-02T01:22:08;100757.91;;;22.04;100.00
35419;BME280;21525;41.240;16.500;2023-05-02T01:24:42;100761.31;;;22.20;100.00
35419;BME280;21525;41.240;16.500;2023-05-02T01:29:37;100766.88;;;22.01;100.00
35419;BME280;21525;41.240;16.500;2023-05-02T01:32:06;100760.84;;;22.13;100.00
35419;BME280;21525;41.240;16.500;2023-05-02T01:34:33;100755.00;;;22.08;100.00
35419;BME280;21525;41.240;16.500;2023-05-02T01:37:01;100767.22;;;21.95;100.00
35419;BME280;21525;41.240;16.500;2023-05-02T01:39:29;100771.25;;;22.17;100.00
35419;BME280;21525;41.240;16.500;2023-05-02T01:41:56;100756.72;;;22.38;100.00
35419;BME280;21525;41.240;16.500;2023-05-02T01:44:24;100765.13;;;22.59;100.00
35419;BME280;21525;41.240;16.500;2023-05-02T01:46:52;100750.41;;;22.10;100.00
35419;BME280;21525;41.240;16.500;2023-05-02T01:49:21;100756.72;;;22.38;100.00
35419;BME280;21525;41.240;16.500;2023-05-02T01:51:48;100750.38;;;21.96;100.00
35419;BME280;21525;41.240;16.500;2023-05-02T01:54:16;100754.56;;;22.00;100.00
35419;BME280;21525;41.240;16.500;2023-05-02T01:56:43;100744.75;;;21.42;100.00
35419;BME280;21525;41.240;16.500;2023-05-02T01:59:13;100741.06;;;21.75;100.00
35419;BME280;21525;41.240;16.500;2023-05-02T02:01:41;100749.41;;;21.83;100.00
35419;BME280;21525;41.240;16.500;2023-05-02T02:04:08;100772.72;;;21.46;100.00
35419;BME280;21525;41.240;16.500;2023-05-02T02:06:35;100749.31;;;22.43;100.00
35419;BME280;21525;41.240;16.500;2023-05-02T02:09:02;100751.66;;;21.75;100.00
35419;BME280;21525;41.240;16.500;2023-05-02T02:11:45;100743.63;;;22.49;100.00
35419;BME280;21525;41.240;16.500;2023-05-02T02:14:17;100725.66;;;22.26;100.00
35419;BME280;21525;41.240;16.500;2023-05-02T02:16:44;100733.50;;;21.23;100.00
35419;BME280;21525;41.240;16.500;2023-05-02T02:19:12;100716.91;;;21.95;100.00
35419;BME280;21525;41.240;16.500;2023-05-02T02:21:39;100714.50;;;22.06;100.00
35419;BME280;21525;41.240;16.500;2023-05-02T02:24:07;100712.13;;;21.72;100.00
35419;BME280;21525;41.240;16.500;2023-05-02T02:26:36;100703.88;;;22.21;100.00
35419;BME280;21525;41.240;16.500;2023-05-02T02:29:02;100700.00;;;22.26;100.00
35419;BME280;21525;41.240;16.500;2023-05-02T02:31:32;100706.69;;;21.29;100.00
35419;BME280;21525;41.240;16.500;2023-05-02T02:34:00;100699.03;;;21.99;100.00
35419;BME280;21525;41.240;16.500;2023-05-02T02:36:38;100688.13;;;21.75;100.00
35419;BME280;21525;41.240;16.500;2023-05-02T02:39:15;100688.69;;;21.80;100.00
35419;BME280;21525;41.240;16.500;2023-05-02T02:41:49;100689.19;;;21.42;100.00
35419;BME280;21525;41.240;16.500;2023-05-02T02:44:39;100680.28;;;21.73;100.00
35419;BME280;21525;41.240;16.500;2023-05-02T02:47:16;100690.53;;;22.51;100.00
35419;BME280;21525;41.240;16.500;2023-05-02T02:55:23;100662.41;;;22.62;100.00
35419;BME280;21525;41.240;16.500;2023-05-02T03:00:34;100654.50;;;22.34;100.00
35419;BME280;21525;41.240;16.500;2023-05-02T03:03:00;100647.84;;;21.98;100.00
35419;BME280;21525;41.240;16.500;2023-05-02T03:05:26;100652.97;;;22.16;100.00
35419;BME280;21525;41.240;16.500;2023-05-02T03:07:54;100638.34;;;22.65;100.00
35419;BME280;21525;41.240;16.500;2023-05-02T03:10:21;100641.03;;;21.66;100.00
35419;BME280;21525;41.240;16.500;2023-05-02T03:12:48;100651.47;;;22.11;100.00
35419;BME280;21525;41.240;16.500;2023-05-02T03:15:29;100651.44;;;21.83;100.00
35419;BME280;21525;41.240;16.500;2023-05-02T03:17:59;100663.59;;;22.30;100.00
35419;BME280;21525;41.240;16.500;2023-05-02T03:20:25;100660.47;;;22.23;100.00
35419;BME280;21525;41.240;16.500;2023-05-02T03:22:51;100670.06;;;21.82;100.00
35419;BME280;21525;41.240;16.500;2023-05-02T03:25:17;100669.56;;;22.05;100.00
35419;BME280;21525;41.240;16.500;2023-05-02T03:27:46;100688.59;;;21.82;100.00
35419;BME280;21525;41.240;16.500;2023-05-02T03:30:13;100681.72;;;22.50;100.00
35419;BME280;21525;41.240;16.500;2023-05-02T03:32:38;100704.41;;;21.97;100.00
35419;BME280;21525;41.240;16.500;2023-05-02T03:35:05;100703.84;;;21.92;100.00
35419;BME280;21525;41.240;16.500;2023-05-02T03:37:36;100700.53;;;22.88;100.00
35419;BME280;21525;41.240;16.500;2023-05-02T03:40:02;100713.66;;;21.90;100.00
35419;BME280;21525;41.240;16.500;2023-05-02T03:42:28;100700.19;;;22.52;100.00
35419;BME280;21525;41.240;16.500;2023-05-02T03:44:56;100711.78;;;21.92;100.00
35419;BME280;21525;41.240;16.500;2023-05-02T03:47:23;100726.31;;;21.85;100.00
35419;BME280;21525;41.240;16.500;2023-05-02T03:49:49;100724.91;;;21.50;100.00
35419;BME280;21525;41.240;16.500;2023-05-02T03:52:17;100724.63;;;21.84;100.00
35419;BME280;21525;41.240;16.500;2023-05-02T03:54:44;100710.72;;;22.39;100.00
35419;BME280;21525;41.240;16.500;2023-05-02T03:57:11;100730.00;;;22.12;100.00
35419;BME280;21525;41.240;16.500;2023-05-02T03:59:38;100721.00;;;22.72;100.00
35419;BME280;21525;41.240;16.500;2023-05-02T04:02:14;100728.19;;;22.56;100.00
35419;BME280;21525;41.240;16.500;2023-05-02T04:04:44;100728.88;;;22.73;100.00
35419;BME280;21525;41.240;16.500;2023-05-02T04:07:13;100730.91;;;21.97;100.00
35419;BME280;21525;41.240;16.500;2023-05-02T04:09:44;100712.78;;;22.62;100.00
35419;BME280;21525;41.240;16.500;2023-05-02T04:12:11;100718.53;;;22.12;100.00
35419;BME280;21525;41.240;16.500;2023-05-02T04:14:41;100723.66;;;22.43;100.00
35419;BME280;21525;41.240;16.500;2023-05-02T04:17:07;100730.28;;;22.79;100.00
35419;BME280;21525;41.240;16.500;2023-05-02T04:19:41;100723.41;;;22.34;100.00
35419;BME280;21525;41.240;16.500;2023-05-02T04:22:07;100727.34;;;22.55;100.00
35419;BME280;21525;41.240;16.500;2023-05-02T04:24:37;100736.16;;;21.83;100.00
35419;BME280;21525;41.240;16.500;2023-05-02T04:27:03;100736.63;;;22.62;100.00
35419;BME280;21525;41.240;16.500;2023-05-02T04:29:29;100748.66;;;22.54;100.00
35419;BME280;21525;41.240;16.500;2023-05-02T04:31:55;100739.56;;;22.86;100.00
35419;BME280;21525;41.240;16.500;2023-05-02T04:34:23;100750.25;;;22.56;100.00
35419;BME280;21525;41.240;16.500;2023-05-02T04:36:49;100763.13;;;22.91;100.00
35419;BME280;21525;41.240;16.500;2023-05-02T04:39:19;100752.09;;;22.41;100.00
35419;BME280;21525;41.240;16.500;2023-05-02T04:41:55;100756.69;;;22.52;100.00
35419;BME280;21525;41.240;16.500;2023-05-02T04:44:23;100760.31;;;22.37;100.00
35419;BME280;21525;41.240;16.500;2023-05-02T04:46:49;100757.84;;;22.62;100.00
35419;BME280;21525;41.240;16.500;2023-05-02T04:49:15;100759.81;;;22.59;100.00
35419;BME280;21525;41.240;16.500;2023-05-02T04:51:41;100760.66;;;21.87;100.00
35419;BME280;21525;41.240;16.500;2023-05-02T04:54:06;100759.16;;;22.84;100.00
35419;BME280;21525;41.240;16.500;2023-05-02T04:56:32;100758.34;;;23.10;100.00
35419;BME280;21525;41.240;16.500;2023-05-02T04:58:58;100758.41;;;22.96;100.00
35419;BME280;21525;41.240;16.500;2023-05-02T05:01:24;100759.53;;;22.49;100.00
35419;BME280;21525;41.240;16.500;2023-05-02T05:03:53;100768.16;;;21.64;100.00
35419;BME280;21525;41.240;16.500;2023-05-02T05:06:20;100780.69;;;21.76;100.00
35419;BME280;21525;41.240;16.500;2023-05-02T05:08:47;100771.16;;;22.04;100.00
35419;BME280;21525;41.240;16.500;2023-05-02T05:11:15;100782.25;;;21.95;100.00
35419;BME280;21525;41.240;16.500;2023-05-02T05:13:41;100780.47;;;21.50;100.00
35419;BME280;21525;41.240;16.500;2023-05-02T05:16:10;100781.66;;;22.20;100.00
35419;BME280;21525;41.240;16.500;2023-05-02T05:18:36;100778.53;;;22.13;100.00
35419;BME280;21525;41.240;16.500;2023-05-02T05:21:07;100778.56;;;22.27;100.00
35419;BME280;21525;41.240;16.500;2023-05-02T05:23:37;100793.03;;;22.50;100.00
35419;BME280;21525;41.240;16.500;2023-05-02T05:26:14;100782.06;;;22.28;100.00
35419;BME280;21525;41.240;16.500;2023-05-02T05:28:44;100787.75;;;22.36;100.00
35419;BME280;21525;41.240;16.500;2023-05-02T05:31:12;100768.41;;;22.76;100.00
35419;BME280;21525;41.240;16.500;2023-05-02T05:33:39;100780.16;;;22.44;100.00
35419;BME280;21525;41.240;16.500;2023-05-02T05:36:11;100764.72;;;23.34;100.00
35419;BME280;21525;41.240;16.500;2023-05-02T05:38:39;100786.25;;;23.03;100.00
35419;BME280;21525;41.240;16.500;2023-05-02T05:41:06;100780.66;;;22.36;100.00
35419;BME280;21525;41.240;16.500;2023-05-02T05:43:34;100780.66;;;22.65;100.00
35419;BME280;21525;41.240;16.500;2023-05-02T05:46:00;100789.72;;;22.32;100.00
35419;BME280;21525;41.240;16.500;2023-05-02T05:48:26;100794.94;;;22.76;100.00
35419;BME280;21525;41.240;16.500;2023-05-02T05:50:52;100777.63;;;22.28;100.00
35419;BME280;21525;41.240;16.500;2023-05-02T05:53:18;100794.94;;;22.48;100.00
35419;BME280;21525;41.240;16.500;2023-05-02T05:55:46;100774.13;;;22.99;100.00
35419;BME280;21525;41.240;16.500;2023-05-02T05:58:12;100773.84;;;22.32;100.00
35419;BME280;21525;41.240;16.500;2023-05-02T06:00:39;100785.25;;;22.04;100.00
35419;BME280;21525;41.240;16.500;2023-05-02T06:03:06;100782.81;;;22.44;100.00
35419;BME280;21525;41.240;16.500;2023-05-02T06:05:32;100769.88;;;21.95;100.00
35419;BME280;21525;41.240;16.500;2023-05-02T06:07:58;100776.03;;;22.68;100.00
35419;BME280;21525;41.240;16.500;2023-05-02T06:10:25;100774.69;;;22.33;100.00
35419;BME280;21525;41.240;16.500;2023-05-02T06:12:51;100785.69;;;22.41;100.00
35419;BME280;21525;41.240;16.500;2023-05-02T06:15:21;100797.03;;;21.69;100.00
35419;BME280;21525;41.240;16.500;2023-05-02T06:17:49;100787.22;;;22.15;100.00
35419;BME280;21525;41.240;16.500;2023-05-02T06:20:16;100788.31;;;22.69;100.00
35419;BME280;21525;41.240;16.500;2023-05-02T06:22:41;100785.63;;;22.12;100.00
35419;BME280;21525;41.240;16.500;2023-05-02T06:25:07;100795.44;;;22.10;100.00
35419;BME280;21525;41.240;16.500;2023-05-02T06:27:33;100808.16;;;21.90;100.00
35419;BME280;21525;41.240;16.500;2023-05-02T06:29:59;100800.88;;;22.09;100.00
35419;BME280;21525;41.240;16.500;2023-05-02T06:32:29;100805.56;;;22.62;100.00
35419;BME280;21525;41.240;16.500;2023-05-02T06:34:56;100819.66;;;22.34;100.00
35419;BME280;21525;41.240;16.500;2023-05-02T06:37:21;100814.47;;;22.61;100.00
35419;BME280;21525;41.240;16.500;2023-05-02T06:39:47;100805.97;;;23.26;100.00
35419;BME280;21525;41.240;16.500;2023-05-02T06:42:13;100823.09;;;22.93;100.00
35419;BME280;21525;41.240;16.500;2023-05-02T06:44:38;100818.34;;;22.41;100.00
35419;BME280;21525;41.240;16.500;2023-05-02T06:47:04;100808.38;;;22.45;100.00
35419;BME280;21525;41.240;16.500;2023-05-02T06:49:31;100821.56;;;22.61;100.00
35419;BME280;21525;41.240;16.500;2023-05-02T06:51:56;100826.78;;;23.05;100.00
35419;BME280;21525;41.240;16.500;2023-05-02T06:54:22;100816.97;;;23.34;100.00
35419;BME280;21525;41.240;16.500;2023-05-02T06:56:48;100825.16;;;23.58;100.00
35419;BME280;21525;41.240;16.500;2023-05-02T06:59:14;100825.03;;;23.86;96.22
35419;BME280;21525;41.240;16.500;2023-05-02T07:01:42;100840.44;;;22.26;100.00
35419;BME280;21525;41.240;16.500;2023-05-02T07:04:08;100832.47;;;23.54;100.00
35419;BME280;21525;41.240;16.500;2023-05-02T07:06:34;100841.38;;;22.98;100.00
35419;BME280;21525;41.240;16.500;2023-05-02T07:09:00;100846.16;;;22.49;100.00
35419;BME280;21525;41.240;16.500;2023-05-02T07:11:26;100857.53;;;23.22;100.00
35419;BME280;21525;41.240;16.500;2023-05-02T07:13:52;100845.53;;;22.88;100.00
35419;BME280;21525;41.240;16.500;2023-05-02T07:16:18;100847.91;;;23.06;100.00
35419;BME280;21525;41.240;16.500;2023-05-02T07:18:45;100846.94;;;22.21;100.00
35419;BME280;21525;41.240;16.500;2023-05-02T07:21:11;100843.41;;;23.35;100.00
35419;BME280;21525;41.240;16.500;2023-05-02T07:23:37;100854.81;;;22.81;100.00
35419;BME280;21525;41.240;16.500;2023-05-02T07:26:03;100876.19;;;22.63;100.00
35419;BME280;21525;41.240;16.500;2023-05-02T07:28:32;100853.09;;;23.08;100.00
35419;BME280;21525;41.240;16.500;2023-05-02T07:30:58;100858.63;;;22.91;100.00
35419;BME280;21525;41.240;16.500;2023-05-02T07:33:24;100863.16;;;23.03;100.00
35419;BME280;21525;41.240;16.500;2023-05-02T07:35:50;100852.06;;;22.82;100.00
35419;BME280;21525;41.240;16.500;2023-05-02T07:38:15;100855.94;;;23.19;100.00
35419;BME280;21525;41.240;16.500;2023-05-02T07:40:41;100848.28;;;23.00;100.00
35419;BME280;21525;41.240;16.500;2023-05-02T07:43:08;100854.88;;;23.07;98.89
35419;BME280;21525;41.240;16.500;2023-05-02T07:45:34;100843.03;;;23.27;97.29
35419;BME280;21525;41.240;16.500;2023-05-02T07:48:00;100838.66;;;23.94;92.98
35419;BME280;21525;41.240;16.500;2023-05-02T07:50:26;100840.44;;;23.40;97.02
35419;BME280;21525;41.240;16.500;2023-05-02T07:52:54;100844.53;;;23.72;94.84
35419;BME280;21525;41.240;16.500;2023-05-02T07:55:20;100836.25;;;23.77;94.54
35419;BME280;21525;41.240;16.500;2023-05-02T07:57:46;100843.56;;;22.91;98.34
35419;BME280;21525;41.240;16.500;2023-05-02T08:00:12;100857.34;;;23.10;97.09
35419;BME280;21525;41.240;16.500;2023-05-02T08:02:42;100842.41;;;23.65;94.51
35419;BME280;21525;41.240;16.500;2023-05-02T08:05:08;100852.72;;;24.09;91.58
35419;BME280;21525;41.240;16.500;2023-05-02T08:07:34;100853.06;;;23.36;94.77
35419;BME280;21525;41.240;16.500;2023-05-02T08:10:00;100845.47;;;23.98;90.17
35419;BME280;21525;41.240;16.500;2023-05-02T08:12:26;100867.69;;;22.72;95.67
35419;BME280;21525;41.240;16.500;2023-05-02T08:14:53;100869.00;;;23.22;94.26
35419;BME280;21525;41.240;16.500;2023-05-02T08:17:19;100856.81;;;23.61;93.78
35419;BME280;21525;41.240;16.500;2023-05-02T08:19:46;100854.19;;;23.73;92.17
35419;BME280;21525;41.240;16.500;2023-05-02T08:22:11;100861.00;;;23.77;92.72
35419;BME280;21525;41.240;16.500;2023-05-02T08:24:37;100852.16;;;24.31;88.94
35419;BME280;21525;41.240;16.500;2023-05-02T08:27:03;100859.97;;;24.20;87.30
35419;BME280;21525;41.240;16.500;2023-05-02T08:29:29;100859.78;;;23.56;91.50
35419;BME280;21525;41.240;16.500;2023-05-02T08:31:55;100856.88;;;23.32;91.72
35419;BME280;21525;41.240;16.500;2023-05-02T08:34:21;100865.13;;;23.28;94.05
35419;BME280;21525;41.240;16.500;2023-05-02T08:36:47;100866.53;;;24.01;89.89
35419;BME280;21525;41.240;16.500;2023-05-02T08:39:13;100873.91;;;24.23;87.03
35419;BME280;21525;41.240;16.500;2023-05-02T08:41:38;100867.97;;;23.93;88.81
35419;BME280;21525;41.240;16.500;2023-05-02T08:44:05;100870.09;;;23.88;89.12
35419;BME280;21525;41.240;16.500;2023-05-02T08:46:34;100861.56;;;23.41;90.53
35419;BME280;21525;41.240;16.500;2023-05-02T08:49:01;100880.97;;;24.10;88.51
35419;BME280;21525;41.240;16.500;2023-05-02T08:51:28;100883.00;;;24.33;87.54
35419;BME280;21525;41.240;16.500;2023-05-02T08:53:55;100872.72;;;24.15;87.11
35419;BME280;21525;41.240;16.500;2023-05-02T08:56:21;100877.34;;;23.98;88.61
35419;BME280;21525;41.240;16.500;2023-05-02T08:58:47;100872.13;;;25.25;83.65
35419;BME280;21525;41.240;16.500;2023-05-02T09:01:23;100863.13;;;24.90;84.58
35419;BME280;21525;41.240;16.500;2023-05-02T09:03:53;100853.44;;;24.76;83.47
35419;BME280;21525;41.240;16.500;2023-05-02T09:06:21;100853.81;;;24.19;83.68
35419;BME280;21525;41.240;16.500;2023-05-02T09:08:48;100872.78;;;24.40;82.91
35419;BME280;21525;41.240;16.500;2023-05-02T09:11:16;100867.91;;;24.47;82.07
35419;BME280;21525;41.240;16.500;2023-05-02T09:13:45;100848.41;;;25.46;77.50
35419;BME280;21525;41.240;16.500;2023-05-02T09:18:49;100871.50;;;25.09;73.51
35419;BME280;21525;41.240;16.500;2023-05-02T09:21:20;100879.59;;;24.95;74.42
35419;BME280;21525;41.240;16.500;2023-05-02T09:23:54;100865.03;;;24.88;75.16
35419;BME280;21525;41.240;16.500;2023-05-02T09:26:23;100877.50;;;25.49;73.25
35419;BME280;21525;41.240;16.500;2023-05-02T09:28:53;100859.16;;;25.21;74.38
35419;BME280;21525;41.240;16.500;2023-05-02T09:31:24;100884.38;;;24.77;76.12
35419;BME280;21525;41.240;16.500;2023-05-02T09:33:51;100879.22;;;25.74;74.04
35419;BME280;21525;41.240;16.500;2023-05-02T09:36:18;100879.97;;;25.39;72.81
35419;BME280;21525;41.240;16.500;2023-05-02T09:38:46;100879.56;;;25.69;71.62
35419;BME280;21525;41.240;16.500;2023-05-02T09:41:12;100863.75;;;26.38;69.71
35419;BME280;21525;41.240;16.500;2023-05-02T09:43:39;100871.31;;;25.49;72.06
35419;BME280;21525;41.240;16.500;2023-05-02T09:46:07;100871.09;;;25.64;71.64
35419;BME280;21525;41.240;16.500;2023-05-02T09:48:53;100867.22;;;26.62;68.26
35419;BME280;21525;41.240;16.500;2023-05-02T09:51:22;100861.03;;;26.27;67.94
35419;BME280;21525;41.240;16.500;2023-05-02T09:53:48;100876.31;;;26.01;67.40
35419;BME280;21525;41.240;16.500;2023-05-02T09:56:14;100857.44;;;25.20;69.24
35419;BME280;21525;41.240;16.500;2023-05-02T09:58:40;100865.53;;;25.91;67.20
35419;BME280;21525;41.240;16.500;2023-05-02T10:01:06;100846.09;;;25.41;70.35
35419;BME280;21525;41.240;16.500;2023-05-02T10:03:36;100868.00;;;24.83;72.32
35419;BME280;21525;41.240;16.500;2023-05-02T10:06:03;100867.03;;;25.59;69.44
35419;BME280;21525;41.240;16.500;2023-05-02T10:08:32;100862.84;;;25.91;67.40
35419;BME280;21525;41.240;16.500;2023-05-02T10:10:59;100872.78;;;26.59;64.83
35419;BME280;21525;41.240;16.500;2023-05-02T10:13:26;100862.34;;;26.56;64.16
35419;BME280;21525;41.240;16.500;2023-05-02T10:16:01;100858.06;;;26.42;64.68
35419;BME280;21525;41.240;16.500;2023-05-02T10:18:35;100880.44;;;26.64;63.32
35419;BME280;21525;41.240;16.500;2023-05-02T10:21:15;100872.03;;;26.57;63.30
35419;BME280;21525;41.240;16.500;2023-05-02T10:23:42;100874.94;;;25.84;65.00
35419;BME280;21525;41.240;16.500;2023-05-02T10:26:16;100873.63;;;26.25;64.96
35419;BME280;21525;41.240;16.500;2023-05-02T10:28:42;100864.69;;;26.02;64.04
35419;BME280;21525;41.240;16.500;2023-05-02T10:31:13;100864.28;;;26.76;63.30
35419;BME280;21525;41.240;16.500;2023-05-02T10:33:39;100868.00;;;26.40;63.47
35419;BME280;21525;41.240;16.500;2023-05-02T10:36:09;100878.34;;;26.21;63.91
35419;BME280;21525;41.240;16.500;2023-05-02T10:38:37;100879.41;;;25.84;63.70
35419;BME280;21525;41.240;16.500;2023-05-02T10:41:13;100869.28;;;26.92;62.33
35419;BME280;21525;41.240;16.500;2023-05-02T10:43:45;100876.94;;;26.04;65.11
35419;BME280;21525;41.240;16.500;2023-05-02T10:46:34;100891.22;;;26.03;63.62
35419;BME280;21525;41.240;16.500;2023-05-02T10:51:28;100894.63;;;26.05;65.58
35419;BME280;21525;41.240;16.500;2023-05-02T10:53:54;100910.72;;;25.93;65.85
35419;BME280;21525;41.240;16.500;2023-05-02T10:59:47;100906.16;;;25.82;65.24
35419;BME280;21525;41.240;16.500;2023-05-02T11:05:05;100890.28;;;26.86;64.52
35419;BME280;21525;41.240;16.500;2023-05-02T11:07:36;100894.75;;;26.63;63.54
35419;BME280;21525;41.240;16.500;2023-05-02T11:12:46;100899.91;;;26.64;62.00
35419;BME280;21525;41.240;16.500;2023-05-02T11:15:13;100897.28;;;25.94;63.37
35419;BME280;21525;41.240;16.500;2023-05-02T11:18:11;100899.34;;;26.26;63.29
35419;BME280;21525;41.240;16.500;2023-05-02T11:20:42;100896.06;;;26.57;62.67
35419;BME280;21525;41.240;16.500;2023-05-02T11:25:47;100892.59;;;26.09;62.10
35419;BME280;21525;41.240;16.500;2023-05-02T11:31:02;100905.53;;;26.02;62.71
35419;BME280;21525;41.240;16.500;2023-05-02T11:33:28;100903.66;;;25.68;64.67
35419;BME280;21525;41.240;16.500;2023-05-02T11:35:54;100881.06;;;26.32;62.69
35419;BME280;21525;41.240;16.500;2023-05-02T11:38:23;100880.53;;;26.62;62.94
35419;BME280;21525;41.240;16.500;2023-05-02T11:43:21;100880.25;;;25.84;62.73
35419;BME280;21525;41.240;16.500;2023-05-02T11:45:47;100879.50;;;26.06;62.98
35419;BME280;21525;41.240;16.500;2023-05-02T11:48:16;100875.25;;;26.03;63.55
35419;BME280;21525;41.240;16.500;2023-05-02T11:53:15;100881.03;;;25.73;64.46
35419;BME280;21525;41.240;16.500;2023-05-02T11:55:46;100884.69;;;26.89;61.04
35419;BME280;21525;41.240;16.500;2023-05-02T11:58:16;100876.41;;;25.88;63.77
35419;BME280;21525;41.240;16.500;2023-05-02T12:00:43;100864.69;;;26.02;62.68
35419;BME280;21525;41.240;16.500;2023-05-02T12:03:27;100884.53;;;26.68;61.39
35419;BME280;21525;41.240;16.500;2023-05-02T12:05:53;100873.16;;;25.35;65.87
35419;BME280;21525;41.240;16.500;2023-05-02T12:08:21;100885.78;;;26.05;63.33
35419;BME280;21525;41.240;16.500;2023-05-02T12:10:48;100868.31;;;26.01;63.93
35419;BME280;21525;41.240;16.500;2023-05-02T12:13:14;100906.00;;;26.55;60.36
35419;BME280;21525;41.240;16.500;2023-05-02T12:15:40;100880.22;;;26.32;62.80
35419;BME280;21525;41.240;16.500;2023-05-02T12:18:06;100883.03;;;26.30;62.16
35419;BME280;21525;41.240;16.500;2023-05-02T12:20:34;100898.69;;;25.87;62.47
35419;BME280;21525;41.240;16.500;2023-05-02T12:23:00;100891.72;;;26.32;62.49
35419;BME280;21525;41.240;16.500;2023-05-02T12:25:26;100887.69;;;27.51;59.47
35419;BME280;21525;41.240;16.500;2023-05-02T12:28:02;100896.84;;;26.35;60.18
35419;BME280;21525;41.240;16.500;2023-05-02T12:30:29;100899.91;;;25.70;61.62
35419;BME280;21525;41.240;16.500;2023-05-02T12:32:56;100898.06;;;26.42;60.50
35419;BME280;21525;41.240;16.500;2023-05-02T12:35:26;100902.91;;;26.14;60.84
35419;BME280;21525;41.240;16.500;2023-05-02T12:37:53;100900.81;;;26.30;60.71
35419;BME280;21525;41.240;16.500;2023-05-02T12:40:19;100912.53;;;25.56;62.71
35419;BME280;21525;41.240;16.500;2023-05-02T12:43:01;100901.25;;;26.24;62.71
35419;BME280;21525;41.240;16.500;2023-05-02T12:45:32;100913.53;;;25.78;62.98
35419;BME280;21525;41.240;16.500;2023-05-02T12:48:16;100911.75;;;26.14;61.14
35419;BME280;21525;41.240;16.500;2023-05-02T12:50:42;100896.22;;;26.32;61.69
35419;BME280;21525;41.240;16.500;2023-05-02T12:53:08;100896.56;;;26.03;61.25
35419;BME280;21525;41.240;16.500;2023-05-02T12:55:34;100902.38;;;25.97;61.53
35419;BME280;21525;41.240;16.500;2023-05-02T13:00:27;100928.16;;;25.73;61.64
35419;BME280;21525;41.240;16.500;2023-05-02T13:02:53;100909.59;;;26.43;58.98
35419;BME280;21525;41.240;16.500;2023-05-02T13:05:19;100908.94;;;26.04;58.12
35419;BME280;21525;41.240;16.500;2023-05-02T13:07:45;100911.66;;;25.19;60.86
35419;BME280;21525;41.240;16.500;2023-05-02T13:10:11;100911.88;;;26.36;57.86
35419;BME280;21525;41.240;16.500;2023-05-02T13:12:38;100914.16;;;25.82;59.79
35419;BME280;21525;41.240;16.500;2023-05-02T13:15:05;100915.31;;;26.50;57.58
35419;BME280;21525;41.240;16.500;2023-05-02T13:17:32;100916.75;;;26.19;59.08
35419;BME280;21525;41.240;16.500;2023-05-02T13:19:58;100920.56;;;25.80;60.16
35419;BME280;21525;41.240;16.500;2023-05-02T13:22:24;100910.75;;;26.63;58.44
35419;BME280;21525;41.240;16.500;2023-05-02T13:24:50;100908.06;;;26.04;57.68
35419;BME280;21525;41.240;16.500;2023-05-02T13:27:16;100922.66;;;26.35;57.51